Time;durP1;ratioP1;P1;durP2;ratioP2;P2;SDS_P1;SDS_P2;PMS_P1;PMS_P2;Temp;Humidity;BMP_temperature;BMP_pressure;BME280_temperature;BME280_humidity;BME280_pressure;Samples;Min_cycle;Max_cycle;Signal;HPM_P1;HPM_P2
2022/01/13 00:01:19;;;;;;;653.28;47.22;;;5.00;99.90;;;;;;5022250;28;20437;-77
2022/01/13 00:03:45;;;;;;;632.40;44.22;;;5.00;99.90;;;;;;5017710;28;20406;-77
2022/01/13 00:06:11;;;;;;;653.30;44.38;;;5.00;99.90;;;;;;5031840;28;20036;-77
2022/01/13 00:08:37;;;;;;;588.55;46.33;;;5.00;99.90;;;;;;5034926;28;20040;-77
2022/01/13 00:11:02;;;;;;;615.63;43.33;;;5.00;99.90;;;;;;5035193;28;20120;-77
2022/01/13 00:13:35;;;;;;;516.42;42.50;;;5.00;99.90;;;;;;5035145;28;20153;-77
2022/01/13 00:18:50;;;;;;;511.00;39.67;;;5.00;99.90;;;;;;5033810;28;19921;-77
2022/01/13 00:23:49;;;;;;;416.15;38.42;;;5.00;99.90;;;;;;5028039;28;20037;-77
2022/01/13 00:26:19;;;;;;;486.67;43.83;;;5.00;99.90;;;;;;5027382;28;20036;-77
2022/01/13 00:28:48;;;;;;;534.60;43.90;;;5.00;99.90;;;;;;5038193;28;20047;-77
2022/01/13 00:31:17;;;;;;;522.17;42.92;;;5.00;99.90;;;;;;5025469;28;20033;-77
2022/01/13 00:33:46;;;;;;;526.47;44.72;;;5.00;99.90;;;;;;5024323;28;20041;-77
2022/01/13 00:36:13;;;;;;;503.05;43.05;;;5.00;99.90;;;;;;5013504;28;20047;-76
2022/01/13 00:38:39;;;;;;;497.70;41.05;;;5.00;99.90;;;;;;5034913;28;20068;-77
2022/01/13 00:41:04;;;;;;;476.48;43.05;;;5.00;99.90;;;;;;5031650;28;20131;-77
2022/01/13 00:43:32;;;;;;;470.08;42.50;;;5.00;99.90;;;;;;5017333;28;20210;-77
2022/01/13 00:45:57;;;;;;;428.65;38.17;;;5.00;99.90;;;;;;5034799;28;20048;-77
2022/01/13 00:48:23;;;;;;;482.70;40.25;;;5.00;99.90;;;;;;5032011;28;20037;-77
2022/01/13 00:50:48;;;;;;;509.15;43.80;;;5.00;99.90;;;;;;5031691;28;20057;-77
2022/01/13 00:53:16;;;;;;;472.38;44.20;;;5.00;99.90;;;;;;5017048;28;20111;-77
2022/01/13 00:56:00;;;;;;;451.77;43.95;;;5.00;99.90;;;;;;5014245;28;20490;-77
2022/01/13 00:58:28;;;;;;;398.08;42.60;;;5.00;99.90;;;;;;5026833;28;20106;-77
2022/01/13 01:00:54;;;;;;;394.67;41.45;;;5.00;99.90;;;;;;5033060;28;20060;-77
2022/01/13 01:03:21;;;;;;;384.05;40.63;;;5.00;99.90;;;;;;5029835;28;20044;-77
2022/01/13 01:05:47;;;;;;;366.40;40.67;;;5.00;99.90;;;;;;5033500;28;20040;-77
2022/01/13 01:08:13;;;;;;;387.92;41.78;;;5.00;99.90;;;;;;5036678;28;20033;-77
2022/01/13 01:10:39;;;;;;;414.35;44.75;;;5.10;99.90;;;;;;5022923;28;20060;-77
2022/01/13 01:13:18;;;;;;;337.00;40.70;;;5.10;99.90;;;;;;5028578;28;20048;-76
2022/01/13 01:15:49;;;;;;;405.95;42.45;;;5.10;99.90;;;;;;5029469;28;20037;-77
2022/01/13 01:31:45;;;;;;;466.00;42.60;;;5.10;99.90;;;;;;5004606;28;20034;-73
2022/01/13 01:36:40;;;;;;;526.35;42.50;;;5.10;99.90;;;;;;5023910;28;20045;-73
2022/01/13 01:39:08;;;;;;;556.65;45.88;;;5.10;99.90;;;;;;5013671;28;20484;-73
2022/01/13 01:41:40;;;;;;;565.83;42.90;;;5.10;99.90;;;;;;5009379;28;20504;-73
2022/01/13 01:44:12;;;;;;;520.35;43.70;;;5.10;99.90;;;;;;5017999;28;20499;-73
2022/01/13 01:46:42;;;;;;;585.70;46.35;;;5.10;99.90;;;;;;5021402;28;20029;-73
2022/01/13 01:49:18;;;;;;;573.53;46.17;;;5.10;99.90;;;;;;5010536;28;20488;-73
2022/01/13 01:51:46;;;;;;;586.95;46.03;;;5.10;99.90;;;;;;5014206;28;20499;-73
2022/01/13 01:54:12;;;;;;;593.33;47.17;;;5.10;99.90;;;;;;5015178;28;20491;-73
2022/01/13 01:56:38;;;;;;;515.22;43.70;;;5.10;99.90;;;;;;5016217;28;20073;-73
2022/01/13 01:59:11;;;;;;;657.55;46.65;;;5.10;99.90;;;;;;5012331;28;20522;-73
2022/01/13 02:01:37;;;;;;;;;;;5.10;99.90;;;;;;5015082;28;20073;-73
2022/01/13 02:04:03;;;;;;;589.08;44.20;;;5.10;99.90;;;;;;5011196;28;19957;-73
2022/01/13 02:06:29;;;;;;;665.38;48.15;;;5.10;99.90;;;;;;5018287;28;20365;-73
2022/01/13 02:08:56;;;;;;;586.65;45.47;;;5.10;99.90;;;;;;5017047;28;20140;-73
2022/01/13 02:11:23;;;;;;;546.75;42.65;;;5.10;99.90;;;;;;5014492;28;20602;-73
2022/01/13 02:13:52;;;;;;;475.70;40.70;;;5.10;99.90;;;;;;5014644;28;20428;-73
2022/01/13 02:18:57;;;;;;;657.97;50.28;;;5.10;99.90;;;;;;5016998;28;20423;-73
2022/01/13 02:21:25;;;;;;;582.85;45.03;;;5.10;99.90;;;;;;5023312;28;20111;-73
2022/01/13 02:23:51;;;;;;;670.17;49.50;;;5.10;99.90;;;;;;5022209;28;20400;-73
2022/01/13 02:26:17;;;;;;;643.17;50.17;;;5.10;99.90;;;;;;5024858;28;20466;-73
2022/01/13 02:28:44;;;;;;;524.17;44.65;;;5.10;99.90;;;;;;5021675;28;20128;-73
2022/01/13 02:31:12;;;;;;;513.65;42.55;;;5.10;99.90;;;;;;5014180;28;20395;-73
2022/01/13 02:33:38;;;;;;;531.13;44.30;;;5.10;99.90;;;;;;5017824;28;20414;-73
2022/01/13 02:36:05;;;;;;;512.63;43.05;;;5.10;99.90;;;;;;5018020;28;20042;-73
2022/01/13 02:38:31;;;;;;;603.10;46.58;;;5.10;99.90;;;;;;5018552;28;20458;-73
2022/01/13 02:40:58;;;;;;;528.38;43.88;;;5.10;99.90;;;;;;5003965;28;20068;-73
2022/01/13 02:43:25;;;;;;;624.13;48.10;;;5.10;99.90;;;;;;5019480;28;20372;-73
2022/01/13 02:46:06;;;;;;;598.47;46.40;;;5.10;99.90;;;;;;4992428;28;20097;-73
2022/01/13 02:48:35;;;;;;;513.58;44.20;;;5.10;99.90;;;;;;5015693;28;20083;-74
2022/01/13 02:51:01;;;;;;;437.17;41.72;;;5.10;99.90;;;;;;5021315;28;20364;-73
2022/01/13 02:53:28;;;;;;;442.60;40.00;;;5.10;99.90;;;;;;5009388;28;20512;-73
2022/01/13 02:55:56;;;;;;;486.58;41.38;;;5.10;99.90;;;;;;5021388;28;20041;-74
2022/01/13 02:58:23;;;;;;;497.85;40.10;;;5.10;99.90;;;;;;5018227;28;20042;-73
2022/01/13 03:00:49;;;;;;;525.55;43.55;;;5.10;99.90;;;;;;5020016;28;20395;-73
2022/01/13 03:03:14;;;;;;;514.55;41.97;;;5.10;99.90;;;;;;5016861;28;20056;-72
2022/01/13 03:05:41;;;;;;;442.42;44.90;;;5.10;99.90;;;;;;5011990;28;20106;-72
2022/01/13 03:08:08;;;;;;;419.75;44.15;;;5.10;99.90;;;;;;5014610;28;20060;-73
2022/01/13 03:10:34;;;;;;;375.23;41.92;;;5.10;99.90;;;;;;5020930;28;20129;-73
2022/01/13 03:13:00;;;;;;;490.55;45.55;;;5.10;99.90;;;;;;5006210;28;20607;-72
2022/01/13 03:15:26;;;;;;;457.73;44.78;;;5.10;99.90;;;;;;5020969;28;20400;-72
2022/01/13 03:17:52;;;;;;;459.80;43.03;;;5.10;99.90;;;;;;5027977;28;20059;-72
2022/01/13 03:20:18;;;;;;;478.83;47.92;;;5.20;99.90;;;;;;5018546;28;20038;-73
2022/01/13 03:22:44;;;;;;;528.22;48.25;;;5.10;99.90;;;;;;5015031;28;20077;-73
2022/01/13 03:25:10;;;;;;;505.30;44.50;;;5.10;99.90;;;;;;5001634;28;20037;-73
2022/01/13 03:27:37;;;;;;;489.13;42.10;;;5.10;99.90;;;;;;5018845;28;20132;-73
2022/01/13 03:30:06;;;;;;;463.50;44.13;;;5.10;99.90;;;;;;5021512;28;20090;-72
2022/01/13 03:32:36;;;;;;;506.92;42.33;;;5.10;99.90;;;;;;5021302;28;20161;-73
2022/01/13 03:35:02;;;;;;;511.55;43.40;;;5.10;99.90;;;;;;5000639;28;20045;-73
2022/01/13 03:37:29;;;;;;;512.65;43.72;;;5.10;99.90;;;;;;5020856;28;20662;-74
2022/01/13 03:39:54;;;;;;;504.77;44.15;;;5.10;99.90;;;;;;5005087;28;20407;-72
2022/01/13 03:42:21;;;;;;;472.15;42.35;;;5.10;99.90;;;;;;5022808;28;20045;-72
2022/01/13 03:44:46;;;;;;;513.92;40.33;;;5.10;99.90;;;;;;5004637;28;20514;-72
2022/01/13 03:47:13;;;;;;;524.22;40.75;;;5.10;99.90;;;;;;5012387;28;20041;-73
2022/01/13 03:49:39;;;;;;;577.70;43.33;;;5.10;99.90;;;;;;5013760;28;20038;-72
2022/01/13 03:52:23;;;;;;;464.17;42.53;;;5.10;99.90;;;;;;5003290;28;20100;-72
2022/01/13 03:54:52;;;;;;;495.80;42.88;;;5.10;99.90;;;;;;5003375;28;20033;-73
2022/01/13 03:57:37;;;;;;;432.42;39.40;;;5.00;99.90;;;;;;5014177;28;20048;-73
2022/01/13 04:00:50;;;;;;;481.35;41.00;;;5.00;99.90;;;;;;5001277;28;20461;-73
2022/01/13 04:03:16;;;;;;;425.77;41.03;;;4.90;99.90;;;;;;5019408;28;20507;-73
2022/01/13 04:06:03;;;;;;;443.25;39.03;;;4.90;99.90;;;;;;5017120;28;20041;-73
2022/01/13 04:08:30;;;;;;;403.50;37.60;;;4.90;99.90;;;;;;5025014;28;20416;-73
2022/01/13 04:11:13;;;;;;;443.05;40.58;;;5.00;99.90;;;;;;5021854;28;20048;-73
2022/01/13 04:16:15;;;;;;;447.58;36.95;;;4.90;99.90;;;;;;5014794;28;20488;-73
2022/01/13 04:18:40;;;;;;;460.13;36.63;;;5.00;99.90;;;;;;5017478;28;20552;-73
2022/01/13 04:21:06;;;;;;;441.17;38.38;;;5.00;99.90;;;;;;5019259;28;20045;-73
2022/01/13 04:23:32;;;;;;;480.20;38.03;;;4.90;99.90;;;;;;5015165;28;20046;-73
2022/01/13 04:25:58;;;;;;;389.63;36.85;;;5.00;99.90;;;;;;5025828;28;20044;-73
2022/01/13 04:28:27;;;;;;;424.17;38.38;;;5.00;99.90;;;;;;5019830;28;20040;-73
2022/01/13 04:31:00;;;;;;;413.00;37.13;;;4.90;99.90;;;;;;5013001;28;20057;-73
2022/01/13 04:33:26;;;;;;;;;;;4.90;99.90;;;;;;5030024;28;20121;-73
2022/01/13 04:35:52;;;;;;;365.83;36.92;;;4.90;99.90;;;;;;5019847;28;20047;-73
2022/01/13 04:38:18;;;;;;;320.02;37.67;;;4.90;99.90;;;;;;5013242;28;20050;-73
2022/01/13 04:40:46;;;;;;;362.95;35.67;;;4.80;99.90;;;;;;5020050;28;20042;-73
2022/01/13 04:43:12;;;;;;;355.83;36.58;;;4.80;99.90;;;;;;5018344;28;20092;-73
2022/01/13 04:45:39;;;;;;;396.48;40.33;;;4.90;99.90;;;;;;5022882;28;20044;-73
2022/01/13 04:48:05;;;;;;;305.15;35.10;;;4.80;99.90;;;;;;5013067;28;20118;-73
2022/01/13 04:50:30;;;;;;;320.80;35.50;;;4.80;99.90;;;;;;5023772;28;20041;-73
2022/01/13 04:52:56;;;;;;;315.17;36.03;;;4.80;99.90;;;;;;5009785;28;20125;-73
2022/01/13 04:55:25;;;;;;;347.10;37.55;;;4.80;99.90;;;;;;5009697;28;20042;-73
2022/01/13 04:57:52;;;;;;;352.33;38.08;;;4.80;99.90;;;;;;5019033;28;20436;-73
2022/01/13 05:00:18;;;;;;;330.05;38.42;;;4.80;99.90;;;;;;5027666;28;20029;-73
2022/01/13 05:02:44;;;;;;;316.73;36.20;;;4.80;99.90;;;;;;5015907;28;20053;-73
2022/01/13 05:05:10;;;;;;;359.27;37.15;;;4.80;99.90;;;;;;5010481;28;20042;-73
2022/01/13 05:07:36;;;;;;;363.80;38.92;;;4.80;99.90;;;;;;5019971;28;20061;-73
2022/01/13 05:10:03;;;;;;;363.58;38.20;;;4.80;99.90;;;;;;5022049;28;20041;-73
2022/01/13 05:12:38;;;;;;;296.77;38.63;;;4.80;99.90;;;;;;5024138;28;20555;-73
2022/01/13 05:15:06;;;;;;;292.90;37.97;;;4.80;99.90;;;;;;5022709;28;20441;-73
2022/01/13 05:20:16;;;;;;;347.27;37.95;;;4.80;99.90;;;;;;5026857;28;20411;-73
2022/01/13 05:22:43;;;;;;;392.90;39.33;;;4.80;99.90;;;;;;5015509;28;20085;-73
2022/01/13 05:25:09;;;;;;;367.67;40.13;;;4.80;99.90;;;;;;5018815;28;20365;-73
2022/01/13 05:27:35;;;;;;;354.70;39.70;;;4.80;99.90;;;;;;5021368;28;20041;-73
2022/01/13 05:30:03;;;;;;;316.42;36.30;;;4.80;99.90;;;;;;5023195;28;20042;-73
2022/01/13 05:32:29;;;;;;;289.80;33.88;;;4.70;99.90;;;;;;5013199;28;20046;-73
2022/01/13 05:34:55;;;;;;;303.67;36.17;;;4.70;99.90;;;;;;5024637;28;20056;-73
2022/01/13 05:37:20;;;;;;;382.70;41.00;;;4.70;99.90;;;;;;5022934;28;20046;-73
2022/01/13 05:39:46;;;;;;;298.33;36.85;;;4.70;99.90;;;;;;5011592;28;20034;-73
2022/01/13 05:42:12;;;;;;;388.70;43.30;;;4.70;99.90;;;;;;4985103;28;20068;-73
2022/01/13 05:44:38;;;;;;;340.77;42.70;;;4.70;99.90;;;;;;5026509;28;20049;-73
2022/01/13 05:47:09;;;;;;;396.25;42.83;;;4.70;99.90;;;;;;5022220;28;21264;-73
2022/01/13 05:49:36;;;;;;;436.10;41.53;;;4.70;99.90;;;;;;5021103;28;20392;-73
2022/01/13 05:52:03;;;;;;;404.88;41.90;;;4.70;99.90;;;;;;5015095;28;20510;-73
2022/01/13 05:54:29;;;;;;;349.10;42.45;;;4.70;99.90;;;;;;5019189;28;20415;-73
2022/01/13 05:56:54;;;;;;;384.17;41.50;;;4.70;99.90;;;;;;5012068;28;20045;-73
2022/01/13 05:59:21;;;;;;;442.70;44.28;;;4.70;99.90;;;;;;5010525;28;20038;-73
2022/01/13 06:01:47;;;;;;;475.95;44.65;;;4.70;99.90;;;;;;5009878;28;20843;-73
2022/01/13 06:04:12;;;;;;;460.52;44.58;;;4.70;99.90;;;;;;5018343;28;20044;-73
2022/01/13 06:06:38;;;;;;;439.95;42.53;;;4.70;99.90;;;;;;5005287;28;20424;-73
2022/01/13 06:09:04;;;;;;;453.55;41.35;;;4.70;99.90;;;;;;5007966;28;20037;-74
2022/01/13 06:11:37;;;;;;;412.05;38.50;;;4.70;99.90;;;;;;4997326;28;20046;-73
2022/01/13 06:14:04;;;;;;;420.30;38.97;;;4.70;99.90;;;;;;5007355;28;20112;-73
2022/01/13 06:16:29;;;;;;;363.98;38.15;;;4.80;99.90;;;;;;5005140;28;20392;-73
2022/01/13 06:18:55;;;;;;;352.20;36.90;;;4.70;99.90;;;;;;5003301;28;20042;-73
2022/01/13 06:21:21;;;;;;;375.27;37.30;;;4.70;99.90;;;;;;5003563;28;20053;-74
2022/01/13 06:23:46;;;;;;;488.15;42.75;;;4.70;99.90;;;;;;4981874;28;20078;-73
2022/01/13 06:26:12;;;;;;;475.92;42.28;;;4.70;99.90;;;;;;5009357;28;20034;-73
2022/01/13 06:28:38;;;;;;;430.85;42.05;;;4.70;99.90;;;;;;5003159;28;20555;-73
2022/01/13 06:31:03;;;;;;;412.52;40.63;;;4.70;99.90;;;;;;4996544;28;20512;-73
2022/01/13 06:33:29;;;;;;;475.15;43.95;;;4.70;99.90;;;;;;5009707;28;20050;-73
2022/01/13 06:35:56;;;;;;;451.77;42.47;;;4.70;99.90;;;;;;4991645;28;20042;-73
2022/01/13 06:38:23;;;;;;;471.65;43.05;;;4.70;99.90;;;;;;5006209;28;20496;-73
2022/01/13 06:40:50;;;;;;;468.23;42.05;;;4.70;99.90;;;;;;5011586;28;20496;-73
2022/01/13 06:43:16;;;;;;;402.15;37.92;;;4.80;99.90;;;;;;5019458;28;20070;-73
2022/01/13 06:45:42;;;;;;;403.38;39.55;;;4.70;99.90;;;;;;5013077;28;20088;-73
2022/01/13 06:48:08;;;;;;;473.80;43.30;;;4.80;99.90;;;;;;5004925;28;20113;-73
2022/01/13 06:50:34;;;;;;;407.15;40.72;;;4.70;99.90;;;;;;5011541;28;20446;-73
2022/01/13 06:53:00;;;;;;;413.80;40.22;;;4.80;99.90;;;;;;5014497;28;20033;-74
2022/01/13 06:55:26;;;;;;;422.08;40.83;;;4.80;99.90;;;;;;5024862;28;20419;-73
2022/01/13 06:57:52;;;;;;;425.85;40.92;;;4.80;99.90;;;;;;5005535;28;20042;-73
2022/01/13 07:00:19;;;;;;;386.25;40.45;;;4.70;99.90;;;;;;5005902;28;20042;-72
2022/01/13 07:02:45;;;;;;;419.85;40.05;;;4.70;99.90;;;;;;5013511;28;20033;-72
2022/01/13 07:05:11;;;;;;;382.27;40.90;;;4.70;99.90;;;;;;5000613;28;20553;-72
2022/01/13 07:07:39;;;;;;;414.92;41.78;;;4.70;99.90;;;;;;5001798;28;20054;-72
2022/01/13 07:10:08;;;;;;;372.88;41.97;;;4.70;99.90;;;;;;5011433;28;20041;-72
2022/01/13 07:12:33;;;;;;;331.83;37.17;;;4.70;99.90;;;;;;4999489;28;20049;-72
2022/01/13 07:14:59;;;;;;;391.52;38.53;;;4.70;99.90;;;;;;5005007;28;20480;-72
2022/01/13 07:30:11;;;;;;;417.08;40.13;;;4.70;99.90;;;;;;4985768;28;20054;-76
2022/01/13 07:32:38;;;;;;;450.60;41.58;;;4.70;99.90;;;;;;5000411;28;20499;-77
2022/01/13 07:35:10;;;;;;;408.05;38.83;;;4.70;99.90;;;;;;5015603;28;20052;-77
2022/01/13 07:37:56;;;;;;;365.55;38.13;;;4.70;99.90;;;;;;5046037;22;20131;-78
2022/01/13 07:40:22;;;;;;;368.75;37.60;;;4.70;99.90;;;;;;5027180;28;20572;-77
2022/01/13 07:42:48;;;;;;;380.55;42.60;;;4.70;99.90;;;;;;5017635;28;20070;-78
2022/01/13 07:45:16;;;;;;;446.40;43.08;;;4.70;99.90;;;;;;5024273;28;20041;-77
2022/01/13 07:47:42;;;;;;;414.83;42.38;;;4.70;99.90;;;;;;5001882;28;20121;-77
2022/01/13 07:50:10;;;;;;;360.92;41.15;;;4.70;99.90;;;;;;5018146;28;20121;-77
2022/01/13 07:52:35;;;;;;;355.65;41.03;;;4.70;99.90;;;;;;4995906;28;20038;-77
2022/01/13 07:55:02;;;;;;;387.38;41.05;;;4.70;99.90;;;;;;5018558;28;20044;-77
2022/01/13 07:57:27;;;;;;;331.23;39.63;;;4.70;99.90;;;;;;5012935;28;20096;-77
2022/01/13 07:59:53;;;;;;;311.90;38.13;;;4.80;99.90;;;;;;5010515;28;20038;-76
2022/01/13 08:02:19;;;;;;;368.88;40.40;;;4.80;99.90;;;;;;5009666;28;20038;-77
2022/01/13 08:04:45;;;;;;;274.50;37.60;;;4.70;99.90;;;;;;5016002;28;20049;-77
2022/01/13 08:10:20;;;;;;;282.80;38.95;;;4.70;99.90;;;;;;2718810;26;20052;-77
2022/01/13 08:13:11;;;;;;;290.52;39.65;;;4.80;99.90;;;;;;5060895;28;20036;-77
2022/01/13 08:15:36;;;;;;;324.17;37.95;;;4.80;99.90;;;;;;5068132;28;20040;-77
2022/01/13 08:20:51;;;;;;;338.17;40.75;;;4.80;99.90;;;;;;5027000;28;20053;-76
2022/01/13 08:23:17;;;;;;;292.73;39.80;;;4.80;99.90;;;;;;5051003;28;20103;-76
2022/01/13 08:25:42;;;;;;;301.20;35.95;;;4.80;99.90;;;;;;5051075;28;20128;-76
2022/01/13 08:28:10;;;;;;;268.02;38.33;;;4.80;99.90;;;;;;5051107;28;20051;-77
2022/01/13 08:30:35;;;;;;;289.00;39.05;;;4.80;99.90;;;;;;5055676;28;20501;-77
2022/01/13 08:33:01;;;;;;;290.92;40.40;;;4.80;99.90;;;;;;5051535;28;20072;-77
2022/01/13 08:35:27;;;;;;;320.55;40.60;;;4.80;99.90;;;;;;5052096;28;20083;-77
2022/01/13 08:37:53;;;;;;;291.70;39.47;;;4.90;99.90;;;;;;5050251;28;20044;-77
2022/01/13 08:40:18;;;;;;;281.48;40.97;;;4.90;99.90;;;;;;5051361;28;20044;-77
2022/01/13 08:42:44;;;;;;;360.17;42.30;;;4.90;99.90;;;;;;5035533;28;20036;-76
2022/01/13 08:45:12;;;;;;;301.67;43.00;;;4.90;99.90;;;;;;5047139;28;20128;-77
2022/01/13 08:47:38;;;;;;;312.77;39.33;;;4.90;99.90;;;;;;5048490;28;20036;-76
2022/01/13 08:50:07;;;;;;;328.58;40.88;;;4.90;99.90;;;;;;5051329;28;20689;-76
2022/01/13 08:52:35;;;;;;;292.92;41.97;;;4.90;99.90;;;;;;5049756;28;20033;-77
2022/01/13 08:55:01;;;;;;;265.17;35.67;;;5.00;99.90;;;;;;5051791;28;20048;-77
2022/01/13 08:57:27;;;;;;;235.40;39.17;;;5.00;99.90;;;;;;5050434;28;20442;-77
2022/01/13 08:59:53;;;;;;;286.52;38.67;;;5.00;99.90;;;;;;5033770;28;20040;-77
2022/01/13 09:02:19;;;;;;;278.98;40.03;;;5.10;99.90;;;;;;5051622;28;20051;-77
2022/01/13 09:04:44;;;;;;;307.13;40.55;;;5.10;99.90;;;;;;5051743;28;20111;-77
2022/01/13 09:07:10;;;;;;;241.40;39.17;;;5.10;99.90;;;;;;5050945;28;20033;-77
2022/01/13 09:09:36;;;;;;;320.85;41.42;;;5.00;99.90;;;;;;5034536;28;20048;-77
2022/01/13 09:12:02;;;;;;;275.38;40.53;;;5.10;99.90;;;;;;5051146;28;20573;-76
2022/01/13 09:14:31;;;;;;;301.23;40.78;;;5.10;99.90;;;;;;5050029;28;20045;-77
2022/01/13 09:16:58;;;;;;;296.00;43.17;;;5.10;99.90;;;;;;5049973;28;20477;-76
2022/01/13 09:19:24;;;;;;;259.05;38.95;;;5.10;99.90;;;;;;5051046;28;20037;-76
2022/01/13 09:21:50;;;;;;;293.42;42.08;;;5.20;99.90;;;;;;5051124;28;20049;-76
2022/01/13 09:24:18;;;;;;;306.63;39.97;;;5.20;99.90;;;;;;5048202;28;20034;-77
2022/01/13 09:26:45;;;;;;;281.67;40.67;;;5.30;99.90;;;;;;5029530;28;20490;-77
2022/01/13 09:29:12;;;;;;;333.10;41.83;;;5.30;99.90;;;;;;5050574;28;20084;-77
2022/01/13 09:31:39;;;;;;;326.55;41.90;;;5.30;99.90;;;;;;5049867;28;20553;-77
2022/01/13 09:34:06;;;;;;;327.05;43.47;;;5.40;99.90;;;;;;5050443;28;20456;-76
2022/01/13 09:36:32;;;;;;;344.40;43.03;;;5.30;99.90;;;;;;5053033;28;20052;-76
2022/01/13 09:38:59;;;;;;;349.90;43.97;;;5.40;99.90;;;;;;5044418;28;20531;-77
2022/01/13 09:41:30;;;;;;;338.30;41.63;;;5.40;99.90;;;;;;5050469;28;20552;-77
2022/01/13 09:43:57;;;;;;;251.05;40.45;;;5.40;99.90;;;;;;5049927;28;20495;-77
2022/01/13 09:46:26;;;;;;;279.83;39.03;;;5.50;99.90;;;;;;5036277;28;20080;-77
2022/01/13 09:48:52;;;;;;;314.55;40.33;;;5.50;99.90;;;;;;5014063;28;20041;-78
2022/01/13 09:51:18;;;;;;;320.13;43.17;;;5.50;99.90;;;;;;5038337;28;20406;-77
2022/01/13 09:53:44;;;;;;;303.23;40.72;;;5.50;99.90;;;;;;5050888;28;20033;-77
2022/01/13 09:56:10;;;;;;;297.95;42.22;;;5.60;99.90;;;;;;5016984;28;20049;-77
2022/01/13 09:58:37;;;;;;;313.20;42.65;;;5.60;99.90;;;;;;5050286;28;20487;-76
2022/01/13 10:01:03;;;;;;;255.65;39.22;;;5.60;99.90;;;;;;5015005;28;20037;-76
2022/01/13 10:03:29;;;;;;;259.02;42.47;;;5.60;99.90;;;;;;5049717;28;20037;-76
2022/01/13 10:06:01;;;;;;;312.48;43.47;;;5.60;99.90;;;;;;5031668;28;20037;-77
2022/01/13 10:08:56;;;;;;;317.63;44.30;;;5.60;99.90;;;;;;5048235;28;20518;-77
2022/01/13 10:11:41;;;;;;;299.92;41.53;;;5.60;99.90;;;;;;5047847;28;20124;-77
2022/01/13 10:16:57;;;;;;;280.45;42.42;;;5.60;99.90;;;;;;5044701;28;20119;-78
2022/01/13 10:19:37;;;;;;;284.67;44.58;;;5.60;99.90;;;;;;5045055;28;20044;-78
2022/01/13 10:22:11;;;;;;;273.98;42.03;;;5.60;99.90;;;;;;5047535;28;20037;-78
2022/01/13 10:24:39;;;;;;;272.85;41.78;;;5.70;99.90;;;;;;5032370;28;20049;-77
2022/01/13 10:27:08;;;;;;;284.02;40.28;;;5.60;99.90;;;;;;5050158;28;20042;-77
2022/01/13 10:29:41;;;;;;;292.63;43.78;;;5.70;99.90;;;;;;5049843;28;20576;-78
2022/01/13 10:32:09;;;;;;;293.67;42.72;;;5.70;99.90;;;;;;5049024;28;20045;-78
2022/01/13 10:34:37;;;;;;;274.05;43.25;;;5.70;99.90;;;;;;5033215;28;20499;-78
2022/01/13 10:37:18;;;;;;;271.45;40.92;;;5.70;99.90;;;;;;5046386;28;20046;-78
2022/01/13 10:39:45;;;;;;;254.45;41.13;;;5.70;99.90;;;;;;5047112;28;20072;-78
2022/01/13 10:42:20;;;;;;;274.38;43.08;;;5.70;99.90;;;;;;5053423;28;20044;-77
2022/01/13 10:44:54;;;;;;;319.42;43.10;;;5.70;99.90;;;;;;5037221;28;20171;-77
2022/01/13 10:47:19;;;;;;;313.73;43.80;;;5.80;99.90;;;;;;5049853;28;20558;-77
2022/01/13 10:49:50;;;;;;;273.38;40.53;;;5.80;99.90;;;;;;5050483;28;20049;-77
2022/01/13 10:52:24;;;;;;;288.38;40.50;;;5.80;99.90;;;;;;5053595;28;20048;-77
2022/01/13 10:55:15;;;;;;;271.52;39.95;;;5.80;99.90;;;;;;5053008;28;20052;-77
2022/01/13 10:57:42;;;;;;;282.20;41.88;;;5.80;99.90;;;;;;5051678;28;20065;-77
2022/01/13 11:00:17;;;;;;;265.40;39.30;;;5.70;99.90;;;;;;5051360;28;20041;-78
2022/01/13 11:02:44;;;;;;;249.10;40.50;;;5.70;99.90;;;;;;5053325;28;20043;-78
2022/01/13 11:05:10;;;;;;;276.67;40.75;;;5.70;99.90;;;;;;5033993;28;20045;-78
2022/01/13 11:07:40;;;;;;;240.95;39.40;;;5.80;99.90;;;;;;5023362;28;20041;-78
2022/01/13 11:10:06;;;;;;;244.07;40.92;;;5.80;99.90;;;;;;5046856;28;20473;-78
2022/01/13 11:12:36;;;;;;;221.82;39.97;;;5.80;99.90;;;;;;5030654;28;20037;-78
2022/01/13 11:15:05;;;;;;;221.45;38.55;;;5.80;99.90;;;;;;5036838;28;20032;-78
2022/01/13 11:17:33;;;;;;;207.68;39.58;;;5.80;99.90;;;;;;5046314;28;20049;-78
2022/01/13 11:20:00;;;;;;;211.10;39.63;;;5.80;99.90;;;;;;5030694;28;20068;-78
2022/01/13 11:22:25;;;;;;;185.70;36.15;;;5.80;99.90;;;;;;5028950;28;20376;-77
2022/01/13 11:24:51;;;;;;;202.93;34.78;;;5.80;99.90;;;;;;5045580;28;20044;-78
2022/01/13 11:27:19;;;;;;;207.65;40.55;;;5.80;99.90;;;;;;5041679;28;20046;-77
2022/01/13 11:29:46;;;;;;;202.82;38.22;;;5.80;99.90;;;;;;5049511;28;20042;-77
2022/01/13 11:32:15;;;;;;;236.35;38.90;;;5.90;99.90;;;;;;5048311;28;20084;-77
2022/01/13 11:34:42;;;;;;;244.40;38.88;;;5.80;99.90;;;;;;5026389;28;20049;-77
2022/01/13 11:37:08;;;;;;;186.75;37.80;;;5.90;99.90;;;;;;5045260;28;21912;-77
2022/01/13 11:39:39;;;;;;;216.48;37.72;;;5.90;99.90;;;;;;5046482;28;20041;-77
2022/01/13 11:42:07;;;;;;;206.20;38.03;;;5.90;99.90;;;;;;5046114;28;20037;-77
2022/01/13 11:44:33;;;;;;;198.90;37.45;;;5.80;99.90;;;;;;5047270;28;20124;-77
2022/01/13 11:47:00;;;;;;;246.90;40.80;;;5.80;99.90;;;;;;5041950;28;20040;-77
2022/01/13 11:49:45;;;;;;;203.25;35.78;;;5.80;99.90;;;;;;5019240;28;20144;-76
2022/01/13 11:52:14;;;;;;;253.73;38.05;;;5.90;99.90;;;;;;5039978;28;20086;-76
2022/01/13 11:54:41;;;;;;;240.25;39.60;;;5.90;99.90;;;;;;5031599;28;20472;-76
2022/01/13 11:57:16;;;;;;;224.98;39.13;;;5.90;99.90;;;;;;5031143;28;20033;-76
2022/01/13 11:59:57;;;;;;;228.18;41.13;;;5.90;99.90;;;;;;5041528;28;20049;-76
2022/01/13 12:02:39;;;;;;;238.13;39.05;;;5.80;99.90;;;;;;5041941;28;20076;-76
2022/01/13 12:05:14;;;;;;;216.82;43.33;;;5.80;99.90;;;;;;5032985;28;20123;-76
2022/01/13 12:07:43;;;;;;;194.15;39.88;;;5.80;99.90;;;;;;5045884;28;20045;-77
2022/01/13 12:10:29;;;;;;;222.50;39.22;;;5.90;99.90;;;;;;5040801;28;20090;-77
2022/01/13 12:12:55;;;;;;;255.15;43.22;;;5.80;99.90;;;;;;5049595;28;20037;-77
2022/01/13 12:15:29;;;;;;;239.65;42.40;;;5.80;99.90;;;;;;5042580;28;20503;-77
2022/01/13 12:18:02;;;;;;;231.25;43.70;;;5.90;99.90;;;;;;5040003;28;20047;-77
2022/01/13 12:23:53;;;;;;;207.77;39.72;;;5.90;99.90;;;;;;5040849;28;20045;-77
2022/01/13 12:26:34;;;;;;;232.77;41.17;;;5.80;99.90;;;;;;5016518;28;20063;-77
2022/01/13 12:29:14;;;;;;;237.75;42.13;;;5.80;99.90;;;;;;5032077;28;20052;-77
2022/01/13 12:31:57;;;;;;;232.95;41.15;;;5.80;99.90;;;;;;5048073;28;20126;-77
2022/01/13 12:34:43;;;;;;;265.35;42.08;;;5.80;99.90;;;;;;5042728;28;20133;-77
2022/01/13 13:59:47;;;;;;;;;;;;;;;;;;;;;
2022/01/13 14:28:31;;;;;;;146.48;46.47;;;6.60;99.90;;;;;;4857173;29;20088;-77
2022/01/13 14:34:40;;;;;;;145.13;45.75;;;6.60;99.90;;;;;;5008904;28;20053;-76
2022/01/13 14:55:43;;;;;;;;;;;;;;;;;;;;;
2022/01/13 14:59:41;;;;;;;;;;;;;;;;;;;;;
2022/01/13 15:02:48;;;;;;;127.90;43.95;;;6.60;99.90;;;;;;4933191;29;20086;-76
2022/01/13 15:29:18;;;;;;;118.25;44.35;;;6.50;99.90;;;;;;5006083;23;20917;-77
2022/01/13 16:00:18;;;;;;;118.20;42.45;;;6.80;99.90;;;;;;3203256;26;20412;-76
2022/01/13 16:09:33;;;;;;;114.80;42.08;;;6.70;99.90;;;;;;5278891;22;20052;-78
2022/01/13 16:15:24;;;;;;;117.95;43.95;;;6.80;99.90;;;;;;5012642;28;20049;-76
2022/01/13 16:17:51;;;;;;;115.15;40.95;;;6.80;99.90;;;;;;5001658;28;20512;-76
2022/01/13 16:20:21;;;;;;;114.72;43.35;;;6.80;99.90;;;;;;5010588;28;20168;-76
2022/01/13 16:22:55;;;;;;;114.07;41.85;;;6.80;99.90;;;;;;4997665;28;21773;-76
2022/01/13 16:25:23;;;;;;;118.43;45.95;;;6.80;99.90;;;;;;4998573;28;20103;-76
2022/01/13 16:27:53;;;;;;;127.80;44.30;;;6.80;99.90;;;;;;4995199;28;20048;-76
2022/01/13 16:30:20;;;;;;;124.60;46.97;;;6.70;99.90;;;;;;4995106;28;20050;-76
2022/01/13 16:32:47;;;;;;;133.63;47.88;;;6.80;99.90;;;;;;4981928;28;20045;-76
2022/01/13 16:35:20;;;;;;;131.73;47.03;;;6.80;99.90;;;;;;5005549;28;20042;-76
2022/01/13 16:37:48;;;;;;;130.70;47.45;;;6.80;99.90;;;;;;5012938;28;20041;-76
2022/01/13 16:40:16;;;;;;;119.70;43.22;;;6.80;99.90;;;;;;4994765;28;20112;-76
2022/01/13 16:42:44;;;;;;;112.97;45.47;;;6.80;99.90;;;;;;4998823;28;20552;-76
2022/01/13 16:45:12;;;;;;;122.97;48.03;;;6.80;99.90;;;;;;4996292;28;20112;-76
2022/01/13 16:47:39;;;;;;;121.18;46.65;;;6.80;99.90;;;;;;4994849;28;20113;-76